Time;durP1;ratioP1;P1;durP2;ratioP2;P2;SDS_P1;SDS_P2;PMS_P1;PMS_P2;Temp;Humidity;BMP_temperature;BMP_pressure;BME280_temperature;BME280_humidity;BME280_pressure;Samples;Min_cycle;Max_cycle;Signal;HPM_P1;HPM_P2
2022/09/15 00:00:20;;;;;;;;;;;;;;;16.14;97.98;100722.06;5053558;28;19925;-30
2022/09/15 00:02:48;;;;;;;;;;;;;;;16.10;96.50;100724.72;5053296;28;19971;-33
2022/09/15 00:05:15;;;;;;;;;;;;;;;16.08;95.21;100723.41;5051640;28;20024;-32
2022/09/15 00:07:43;;;;;;;;;;;;;;;16.07;93.30;100724.56;5053452;28;19951;-33
2022/09/15 00:10:11;;;;;;;;;;;;;;;16.04;92.50;100720.44;5053152;28;19929;-33
2022/09/15 00:12:40;;;;;;;;;;;;;;;16.00;90.27;100725.09;5052246;28;19925;-32
2022/09/15 00:15:08;;;;;;;;;;;;;;;16.00;89.38;100730.72;5053505;28;19932;-34
2022/09/15 00:17:36;;;;;;;;;;;;;;;15.98;87.99;100733.06;5053213;28;19975;-33
2022/09/15 00:20:05;;;;;;;;;;;;;;;15.98;87.36;100732.25;5052408;28;20042;-38
2022/09/15 00:22:33;;;;;;;;;;;;;;;15.98;86.93;100726.63;5052742;28;19925;-33
2022/09/15 00:25:01;;;;;;;;;;;;;;;15.98;86.79;100727.44;5052647;28;19971;-34
2022/09/15 00:27:28;;;;;;;;;;;;;;;15.98;86.76;100721.81;5052490;28;20068;-32
2022/09/15 00:29:57;;;;;;;;;;;;;;;15.99;86.76;100725.44;5053046;28;19925;-36
2022/09/15 00:32:24;;;;;;;;;;;;;;;15.97;84.57;100720.16;5051969;28;19944;-34
2022/09/15 00:34:52;;;;;;;;;;;;;;;15.97;84.07;100722.97;5052649;28;19932;-33
2022/09/15 00:37:20;;;;;;;;;;;;;;;15.98;84.19;100719.00;5052741;28;20345;-33
2022/09/15 00:39:47;;;;;;;;;;;;;;;15.99;83.57;100714.16;5052101;28;20381;-32
2022/09/15 00:42:16;;;;;;;;;;;;;;;16.00;82.53;100730.72;5052686;28;20404;-39
2022/09/15 00:44:49;;;;;;;;;;;;;;;16.02;81.85;100727.56;5052125;28;19929;-32
2022/09/15 00:47:19;;;;;;;;;;;;;;;16.03;81.82;100724.41;5052169;28;19925;-33
2022/09/15 00:49:49;;;;;;;;;;;;;;;16.06;82.25;100726.56;5052507;28;19924;-35
2022/09/15 00:52:19;;;;;;;;;;;;;;;16.07;83.02;100725.41;5052535;28;20336;-42
2022/09/15 00:54:50;;;;;;;;;;;;;;;16.09;83.41;100723.06;5051723;28;19968;-32
2022/09/15 00:57:21;;;;;;;;;;;;;;;16.10;83.80;100730.34;5052683;28;19952;-33
2022/09/15 00:59:49;;;;;;;;;;;;;;;16.12;84.21;100721.56;5052417;28;19979;-40
2022/09/15 01:02:21;;;;;;;;;;;;;;;16.13;84.73;100721.22;5051586;28;19928;-38
2022/09/15 01:04:49;;;;;;;;;;;;;;;16.18;88.65;100739.94;5052362;28;20157;-40
2022/09/15 01:07:25;;;;;;;;;;;;;;;16.21;92.45;100739.22;5052687;28;19928;-34
2022/09/15 01:09:54;;;;;;;;;;;;;;;16.22;93.81;100731.59;5051691;28;19929;-40
2022/09/15 01:12:22;;;;;;;;;;;;;;;16.17;93.92;100739.09;5052179;28;20028;-36
2022/09/15 01:14:49;;;;;;;;;;;;;;;16.12;93.28;100739.28;5051202;28;20345;-32
2022/09/15 01:17:22;;;;;;;;;;;;;;;16.07;91.81;100733.84;5051918;28;19933;-43
2022/09/15 01:19:58;;;;;;;;;;;;;;;16.04;90.86;100740.13;5051989;28;19960;-33
2022/09/15 01:22:32;;;;;;;;;;;;;;;16.01;90.10;100742.81;5051750;28;19928;-43
2022/09/15 01:25:06;;;;;;;;;;;;;;;15.99;89.46;100737.50;5051820;28;19968;-32
2022/09/15 01:27:48;;;;;;;;;;;;;;;15.97;89.06;100737.06;5051858;28;19954;-38
2022/09/15 01:30:19;;;;;;;;;;;;;;;15.97;88.81;100739.88;5050175;28;20390;-33
2022/09/15 01:33:02;;;;;;;;;;;;;;;15.94;86.71;100737.72;5051917;28;19924;-32
2022/09/15 01:35:34;;;;;;;;;;;;;;;15.93;84.53;100735.25;5051612;28;19924;-32
2022/09/15 01:38:04;;;;;;;;;;;;;;;15.91;82.01;100738.41;5050802;28;19933;-32
2022/09/15 01:40:35;;;;;;;;;;;;;;;15.90;80.19;100736.75;5051345;28;20398;-36
2022/09/15 01:43:03;;;;;;;;;;;;;;;15.90;79.62;100741.53;5050174;28;20408;-40
2022/09/15 01:45:33;;;;;;;;;;;;;;;15.89;79.98;100735.09;5051695;28;19936;-34
2022/09/15 01:48:02;;;;;;;;;;;;;;;15.90;80.27;100741.53;5033962;28;19948;-41
2022/09/15 01:50:32;;;;;;;;;;;;;;;15.91;80.90;100737.56;5050362;28;19929;-39
2022/09/15 01:53:02;;;;;;;;;;;;;;;15.92;81.34;100745.69;5051108;28;19924;-37
2022/09/15 01:55:31;;;;;;;;;;;;;;;15.92;82.16;100736.41;5051257;28;20302;-38
2022/09/15 01:57:59;;;;;;;;;;;;;;;15.91;83.01;100727.13;5050548;28;19959;-33
2022/09/15 02:00:26;;;;;;;;;;;;;;;15.92;84.02;100740.06;5050055;28;19936;-36
2022/09/15 02:02:58;;;;;;;;;;;;;;;15.94;85.17;100732.09;5051581;28;19924;-33
2022/09/15 02:05:29;;;;;;;;;;;;;;;15.94;86.25;100734.09;5050532;28;20023;-33
2022/09/15 02:08:03;;;;;;;;;;;;;;;15.94;86.60;100734.91;5050956;28;19925;-34
2022/09/15 02:10:34;;;;;;;;;;;;;;;15.94;86.71;100734.91;5051193;28;20397;-39
2022/09/15 02:13:06;;;;;;;;;;;;;;;15.95;86.44;100735.72;5050364;28;19935;-32
2022/09/15 02:15:41;;;;;;;;;;;;;;;15.95;86.33;100736.56;5051515;28;19979;-39
2022/09/15 02:18:13;;;;;;;;;;;;;;;15.94;86.23;100732.09;5049901;28;20386;-34
2022/09/15 02:20:44;;;;;;;;;;;;;;;15.95;86.76;100735.72;5050609;28;19956;-33
2022/09/15 02:23:17;;;;;;;;;;;;;;;15.95;87.07;100730.94;5050705;28;20011;-40
2022/09/15 02:25:45;;;;;;;;;;;;;;;15.95;86.83;100727.28;5048778;28;19929;-37
2022/09/15 02:28:15;;;;;;;;;;;;;;;15.96;86.92;100737.38;5050570;28;19968;-41
2022/09/15 02:30:43;;;;;;;;;;;;;;;15.95;86.79;100730.94;5050759;28;20443;-32
2022/09/15 02:33:14;;;;;;;;;;;;;;;15.96;87.04;100735.41;5049707;28;19960;-37
2022/09/15 02:35:42;;;;;;;;;;;;;;;15.99;87.10;100733.88;5050645;28;19929;-37
2022/09/15 02:38:10;;;;;;;;;;;;;;;15.98;87.03;100735.88;5050399;28;20394;-35
2022/09/15 02:40:39;;;;;;;;;;;;;;;15.97;86.53;100731.41;5049887;28;19955;-32
2022/09/15 02:43:09;;;;;;;;;;;;;;;15.98;86.06;100733.06;5050623;28;19928;-33
2022/09/15 02:45:37;;;;;;;;;;;;;;;15.97;85.47;100734.25;5050614;28;19924;-36
2022/09/15 02:48:05;;;;;;;;;;;;;;;15.98;84.89;100735.06;5049590;28;19925;-33
2022/09/15 02:50:34;;;;;;;;;;;;;;;15.99;84.66;100745.13;5050452;28;19925;-32
2022/09/15 02:53:01;;;;;;;;;;;;;;;16.00;84.69;100738.34;5051534;28;19929;-33
2022/09/15 02:55:29;;;;;;;;;;;;;;;16.00;84.87;100733.53;5050117;28;19971;-36
2022/09/15 02:57:56;;;;;;;;;;;;;;;16.02;85.09;100736.00;5050457;28;19974;-33
2022/09/15 03:00:24;;;;;;;;;;;;;;;16.03;85.38;100730.03;5049399;28;19924;-33
2022/09/15 03:02:53;;;;;;;;;;;;;;;16.04;85.90;100726.06;5050177;28;20394;-38
2022/09/15 03:05:22;;;;;;;;;;;;;;;16.04;86.56;100731.69;5049719;28;19924;-32
2022/09/15 03:07:52;;;;;;;;;;;;;;;16.04;86.51;100730.88;5049606;28;19986;-36
2022/09/15 03:10:20;;;;;;;;;;;;;;;16.04;86.66;100739.31;5050769;28;20018;-34
2022/09/15 03:12:49;;;;;;;;;;;;;;;16.02;86.54;100745.28;5049322;28;19925;-34
2022/09/15 03:15:17;;;;;;;;;;;;;;;16.02;86.29;100744.47;5048210;28;19979;-33
2022/09/15 03:17:46;;;;;;;;;;;;;;;16.02;85.84;100739.66;5048774;28;19932;-32
2022/09/15 03:20:15;;;;;;;;;;;;;;;16.03;85.46;100744.13;5048785;28;19929;-40
2022/09/15 03:22:42;;;;;;;;;;;;;;;16.02;85.35;100742.47;5049396;28;19986;-33
2022/09/15 03:25:12;;;;;;;;;;;;;;;16.03;85.64;100744.13;5049801;28;19933;-43
2022/09/15 03:27:39;;;;;;;;;;;;;;;16.04;85.55;100742.13;5049776;28;19979;-33
2022/09/15 03:30:08;;;;;;;;;;;;;;;16.02;84.67;100750.09;5046922;28;19971;-32
2022/09/15 03:32:36;;;;;;;;;;;;;;;16.03;84.16;100740.47;5046074;28;19975;-34
2022/09/15 03:35:04;;;;;;;;;;;;;;;16.03;84.21;100751.75;5048526;28;19925;-35
2022/09/15 03:37:31;;;;;;;;;;;;;;;16.03;84.08;100744.13;5048469;28;19967;-41
2022/09/15 03:39:58;;;;;;;;;;;;;;;16.03;84.27;100741.31;5049449;28;19956;-32
2022/09/15 03:42:28;;;;;;;;;;;;;;;16.05;84.35;100749.41;5048642;28;19932;-32
2022/09/15 03:44:55;;;;;;;;;;;;;;;16.04;83.44;100745.78;5048369;28;19925;-33
2022/09/15 03:47:23;;;;;;;;;;;;;;;16.04;82.99;100740.13;5049576;28;19968;-40
2022/09/15 03:49:50;;;;;;;;;;;;;;;16.03;82.43;100743.28;5049079;28;20288;-36
2022/09/15 03:52:18;;;;;;;;;;;;;;;16.03;82.25;100741.31;5050069;28;19971;-38
2022/09/15 03:54:45;;;;;;;;;;;;;;;16.04;82.29;100744.94;5048475;28;19924;-36
2022/09/15 03:57:13;;;;;;;;;;;;;;;16.05;82.15;100743.78;5046370;28;19967;-35
2022/09/15 03:59:41;;;;;;;;;;;;;;;16.04;82.25;100742.97;5049471;28;19936;-34
2022/09/15 04:02:09;;;;;;;;;;;;;;;16.06;82.41;100745.44;5049680;28;19952;-40
2022/09/15 04:04:37;;;;;;;;;;;;;;;16.07;83.74;100750.72;5049007;28;20285;-32
2022/09/15 04:07:04;;;;;;;;;;;;;;;16.08;85.66;100748.75;5050861;28;19964;-38
2022/09/15 04:09:31;;;;;;;;;;;;;;;16.10;87.31;100752.03;5053033;28;19928;-38
2022/09/15 04:11:59;;;;;;;;;;;;;;;16.08;88.02;100749.56;5051597;28;19953;-40
2022/09/15 04:14:27;;;;;;;;;;;;;;;16.06;89.02;100746.25;5052451;28;19925;-34
2022/09/15 04:16:55;;;;;;;;;;;;;;;16.07;90.28;100744.28;5052859;28;20439;-34
2022/09/15 04:19:23;;;;;;;;;;;;;;;16.05;92.12;100749.41;5052560;28;19956;-34
2022/09/15 04:21:50;;;;;;;;;;;;;;;16.01;92.70;100748.44;5052669;28;19933;-43
2022/09/15 04:24:18;;;;;;;;;;;;;;;15.97;92.87;100762.38;5053217;28;20340;-39
2022/09/15 04:26:45;;;;;;;;;;;;;;;15.93;94.15;100783.91;5050810;28;20014;-32
2022/09/15 04:29:14;;;;;;;;;;;;;;;15.92;99.11;100775.81;5053009;28;19975;-35
2022/09/15 04:31:42;;;;;;;;;;;;;;;15.87;100.00;100776.00;5051991;28;19925;-37
2022/09/15 04:34:11;;;;;;;;;;;;;;;15.78;100.00;100773.22;5052919;28;19925;-34
2022/09/15 04:36:38;;;;;;;;;;;;;;;15.63;100.00;100776.56;5051903;28;20681;-40
2022/09/15 04:39:06;;;;;;;;;;;;;;;15.46;100.00;100786.66;5051773;28;19925;-39
2022/09/15 04:41:33;;;;;;;;;;;;;;;15.32;100.00;100782.38;5052901;28;20035;-42
2022/09/15 04:44:01;;;;;;;;;;;;;;;15.15;100.00;100777.63;5052552;28;20344;-34
2022/09/15 04:46:29;;;;;;;;;;;;;;;15.03;100.00;100774.63;5051417;28;19972;-36
2022/09/15 04:48:57;;;;;;;;;;;;;;;14.88;100.00;100775.13;5050722;28;20342;-32
2022/09/15 04:51:26;;;;;;;;;;;;;;;14.72;100.00;100775.63;5051206;28;20631;-32
2022/09/15 04:53:54;;;;;;;;;;;;;;;14.65;100.00;100780.91;5051049;28;19929;-41
2022/09/15 04:56:22;;;;;;;;;;;;;;;14.60;100.00;100783.03;5052026;28;19924;-37
2022/09/15 04:58:51;;;;;;;;;;;;;;;14.53;100.00;100782.72;5052099;28;20582;-42
2022/09/15 05:01:20;;;;;;;;;;;;;;;14.45;100.00;100787.16;5050312;28;20400;-32
2022/09/15 05:03:48;;;;;;;;;;;;;;;14.42;100.00;100790.59;5051180;28;19935;-42
2022/09/15 05:06:17;;;;;;;;;;;;;;;14.40;100.00;100785.31;5050199;28;19929;-34
2022/09/15 05:08:48;;;;;;;;;;;;;;;14.38;100.00;100784.81;5050638;28;20054;-34
2022/09/15 05:11:15;;;;;;;;;;;;;;;14.36;100.00;100781.50;5051810;28;19979;-33
2022/09/15 05:13:43;;;;;;;;;;;;;;;14.35;100.00;100791.06;5051069;28;19998;-33
2022/09/15 05:16:12;;;;;;;;;;;;;;;14.36;100.00;100787.09;5050402;28;19932;-34
2022/09/15 05:18:40;;;;;;;;;;;;;;;14.37;100.00;100790.75;5051107;28;19932;-32
2022/09/15 05:21:09;;;;;;;;;;;;;;;14.41;100.00;100803.81;5050784;28;20328;-38
2022/09/15 05:23:37;;;;;;;;;;;;;;;14.44;100.00;100799.53;5050002;28;20023;-35
2022/09/15 05:26:07;;;;;;;;;;;;;;;14.43;100.00;100806.28;5051391;28;19929;-39
2022/09/15 05:28:36;;;;;;;;;;;;;;;14.43;100.00;100814.72;5049818;28;19999;-40
2022/09/15 05:31:07;;;;;;;;;;;;;;;14.39;100.00;100806.09;5050710;28;19929;-42
2022/09/15 05:33:35;;;;;;;;;;;;;;;14.36;100.00;100805.94;5050873;28;20386;-33
2022/09/15 05:36:03;;;;;;;;;;;;;;;14.35;100.00;100793.88;5050930;28;19974;-32
2022/09/15 05:38:31;;;;;;;;;;;;;;;14.36;100.00;100789.09;5051119;28;19933;-32
2022/09/15 05:41:02;;;;;;;;;;;;;;;14.36;100.00;100789.09;5051655;28;19925;-32
2022/09/15 05:43:32;;;;;;;;;;;;;;;14.37;100.00;100785.13;5049891;28;19951;-33
2022/09/15 05:46:00;;;;;;;;;;;;;;;14.36;100.00;100775.88;5049878;28;19929;-33
2022/09/15 05:48:28;;;;;;;;;;;;;;;14.38;100.00;100775.56;5049393;28;19979;-40
2022/09/15 05:50:57;;;;;;;;;;;;;;;14.41;100.00;100786.13;5049908;28;20332;-32
2022/09/15 05:53:25;;;;;;;;;;;;;;;14.43;100.00;100781.84;5050093;28;19928;-32
2022/09/15 05:55:54;;;;;;;;;;;;;;;14.46;100.00;100769.16;5050064;28;19933;-43
2022/09/15 05:58:22;;;;;;;;;;;;;;;14.50;100.00;100769.31;5049434;28;20360;-32
2022/09/15 06:00:52;;;;;;;;;;;;;;;14.55;100.00;100771.97;5050410;28;19932;-32
2022/09/15 06:03:20;;;;;;;;;;;;;;;14.59;100.00;100776.59;5046300;28;20481;-32
2022/09/15 06:05:47;;;;;;;;;;;;;;;14.64;100.00;100772.81;5049166;28;20294;-35
2022/09/15 06:08:15;;;;;;;;;;;;;;;14.68;100.00;100769.00;5049862;28;19994;-32
2022/09/15 06:10:43;;;;;;;;;;;;;;;14.73;100.00;100777.28;5049077;28;19924;-32
2022/09/15 06:13:10;;;;;;;;;;;;;;;14.77;100.00;100772.66;5049725;28;19925;-32
2022/09/15 06:15:38;;;;;;;;;;;;;;;14.82;100.00;100774.47;5050274;28;19928;-32
2022/09/15 06:18:07;;;;;;;;;;;;;;;14.86;100.00;100778.28;5029365;28;19955;-34
2022/09/15 06:20:34;;;;;;;;;;;;;;;14.89;100.00;100771.16;5045334;28;19956;-33
2022/09/15 06:23:02;;;;;;;;;;;;;;;14.91;100.00;100774.47;5050760;28;20344;-33
2022/09/15 06:25:30;;;;;;;;;;;;;;;14.93;100.00;100777.78;5049592;28;19929;-32
2022/09/15 06:27:57;;;;;;;;;;;;;;;14.97;100.00;100778.78;5050968;28;20019;-32
2022/09/15 06:30:25;;;;;;;;;;;;;;;14.97;100.00;100775.97;5050459;28;19928;-32
2022/09/15 06:32:52;;;;;;;;;;;;;;;14.97;100.00;100775.97;5050769;28;19925;-35
2022/09/15 06:35:21;;;;;;;;;;;;;;;14.97;100.00;100773.16;5050070;28;19979;-31
2022/09/15 06:37:50;;;;;;;;;;;;;;;15.01;100.00;100776.94;5049074;28;19925;-31
2022/09/15 06:40:17;;;;;;;;;;;;;;;15.04;100.00;100776.28;5048167;28;19932;-32
2022/09/15 06:42:46;;;;;;;;;;;;;;;15.07;99.96;100772.81;5050225;28;19929;-38
2022/09/15 06:45:14;;;;;;;;;;;;;;;15.11;99.64;100771.00;5049795;28;20382;-36
2022/09/15 06:47:41;;;;;;;;;;;;;;;15.14;99.09;100765.56;5050819;28;19975;-41
2022/09/15 06:50:09;;;;;;;;;;;;;;;15.19;98.82;100772.97;5050626;28;19978;-36
2022/09/15 06:52:38;;;;;;;;;;;;;;;15.25;98.72;100782.06;5050222;28;19929;-32
2022/09/15 06:55:05;;;;;;;;;;;;;;;15.27;96.87;100771.31;5051454;28;19980;-33
2022/09/15 06:57:33;;;;;;;;;;;;;;;15.28;94.63;100773.78;5051497;28;20302;-37
2022/09/15 07:00:01;;;;;;;;;;;;;;;15.32;93.61;100779.59;5050611;28;19981;-36
2022/09/15 07:02:29;;;;;;;;;;;;;;;15.36;93.22;100781.41;5051264;28;19971;-40
2022/09/15 07:04:56;;;;;;;;;;;;;;;15.41;93.37;100780.38;5051337;28;19924;-39
2022/09/15 07:07:24;;;;;;;;;;;;;;;15.44;93.16;100786.16;5050567;28;19979;-36
2022/09/15 07:09:53;;;;;;;;;;;;;;;15.49;93.08;100787.97;5051336;28;19932;-38
2022/09/15 07:12:20;;;;;;;;;;;;;;;15.53;92.79;100783.34;5051329;28;19928;-38
2022/09/15 07:14:48;;;;;;;;;;;;;;;15.56;90.63;100788.34;5050529;28;19971;-35
2022/09/15 07:17:16;;;;;;;;;;;;;;;15.58;88.20;100790.81;5051001;28;19932;-41
2022/09/15 07:19:44;;;;;;;;;;;;;;;15.63;87.52;100790.63;5050994;28;19932;-38
2022/09/15 07:22:11;;;;;;;;;;;;;;;15.67;86.87;100794.41;5050386;28;19924;-32
2022/09/15 07:24:39;;;;;;;;;;;;;;;15.70;85.52;100797.41;5051328;28;20297;-32
2022/09/15 07:27:08;;;;;;;;;;;;;;;15.75;84.11;100796.41;5033118;28;19950;-33
2022/09/15 07:29:37;;;;;;;;;;;;;;;15.81;84.93;100800.66;5050338;28;19929;-31
2022/09/15 07:32:04;;;;;;;;;;;;;;;15.89;85.43;100804.63;5050748;28;19928;-44
2022/09/15 07:34:32;;;;;;;;;;;;;;;15.95;85.51;100804.09;5050192;28;19979;-43
2022/09/15 07:36:59;;;;;;;;;;;;;;;16.00;84.33;100801.09;5051227;28;19951;-39
2022/09/15 07:39:27;;;;;;;;;;;;;;;16.07;85.38;100809.84;5051098;28;19925;-34
2022/09/15 07:41:55;;;;;;;;;;;;;;;16.18;86.04;100815.94;5051494;28;19959;-38
2022/09/15 07:44:24;;;;;;;;;;;;;;;16.25;84.84;100804.13;5054769;28;20301;-38
2022/09/15 07:46:51;;;;;;;;;;;;;;;16.33;83.50;100809.72;5054732;28;19983;-38
2022/09/15 07:49:19;;;;;;;;;;;;;;;16.42;83.75;100809.66;5054139;28;20302;-40
2022/09/15 07:51:47;;;;;;;;;;;;;;;16.51;82.43;100811.28;5054767;28;19928;-39
2022/09/15 07:54:14;;;;;;;;;;;;;;;16.61;81.60;100817.69;5054927;28;20911;-32
2022/09/15 07:56:48;;;;;;;;;;;;;;;16.70;80.52;100822.13;5054105;28;19968;-35
2022/09/15 07:59:15;;;;;;;;;;;;;;;16.78;81.18;100828.91;5054409;28;19929;-32
2022/09/15 08:01:45;;;;;;;;;;;;;;;16.90;81.86;100830.97;5054502;28;20481;-33
2022/09/15 08:04:13;;;;;;;;;;;;;;;16.99;82.39;100834.53;5053717;28;19925;-34
2022/09/15 08:06:40;;;;;;;;;;;;;;;17.06;81.61;100832.81;5034548;28;20456;-40
2022/09/15 08:09:13;;;;;;;;;;;;;;;17.11;80.15;100838.25;5048574;28;19971;-36
2022/09/15 08:11:41;;;;;;;;;;;;;;;17.14;79.52;100837.56;5053529;28;20378;-43
2022/09/15 08:14:09;;;;;;;;;;;;;;;17.20;80.53;100841.00;5054352;28;19974;-37
2022/09/15 08:16:36;;;;;;;;;;;;;;;17.26;81.99;100836.78;5053939;28;20313;-39
2022/09/15 08:19:05;;;;;;;;;;;;;;;17.32;82.20;100846.72;5054100;28;19929;-36
2022/09/15 08:21:33;;;;;;;;;;;;;;;17.38;82.41;100842.53;5054215;28;19925;-32
2022/09/15 08:24:01;;;;;;;;;;;;;;;17.42;82.57;100849.09;5053080;28;20078;-32
2022/09/15 08:26:29;;;;;;;;;;;;;;;17.45;81.79;100844.75;5054019;28;19929;-32
2022/09/15 08:28:58;;;;;;;;;;;;;;;17.47;81.54;100846.06;5053927;28;20326;-37
2022/09/15 08:31:25;;;;;;;;;;;;;;;17.52;81.08;100847.84;5053392;28;20279;-38
2022/09/15 08:33:54;;;;;;;;;;;;;;;17.56;79.24;100852.47;5053684;28;19956;-34
2022/09/15 08:36:26;;;;;;;;;;;;;;;17.63;79.06;100860.34;5042995;28;19925;-33
2022/09/15 08:38:53;;;;;;;;;;;;;;;17.76;79.46;100869.75;5053151;28;20411;-34
2022/09/15 08:41:23;;;;;;;;;;;;;;;18.19;79.48;100863.59;5053835;28;19975;-38
2022/09/15 08:43:55;;;;;;;;;;;;;;;18.58;76.42;100860.09;5053689;28;19932;-35
2022/09/15 08:46:25;;;;;;;;;;;;;;;18.79;74.64;100868.47;5052865;28;20381;-38
2022/09/15 08:48:56;;;;;;;;;;;;;;;18.85;73.01;100867.06;5053514;28;19931;-35
2022/09/15 08:51:32;;;;;;;;;;;;;;;18.84;75.47;100873.91;5050502;28;19928;-40
2022/09/15 08:54:02;;;;;;;;;;;;;;;18.71;76.91;100882.75;5052281;28;19928;-35
2022/09/15 08:56:30;;;;;;;;;;;;;;;18.54;79.37;100890.25;5053059;28;20309;-38
2022/09/15 08:58:58;;;;;;;;;;;;;;;18.38;80.48;100896.97;5052729;28;19947;-36
2022/09/15 09:01:34;;;;;;;;;;;;;;;18.21;79.75;100897.97;5053059;28;19929;-35
2022/09/15 09:04:21;;;;;;;;;;;;;;;18.06;80.49;100905.13;5053671;28;19928;-32
2022/09/15 09:06:56;;;;;;;;;;;;;;;17.94;80.98;100893.78;5051584;28;19936;-35
2022/09/15 09:09:31;;;;;;;;;;;;;;;17.94;82.00;100893.78;5053518;28;20023;-32
2022/09/15 09:12:05;;;;;;;;;;;;;;;17.98;82.23;100896.75;5052004;28;19979;-32
2022/09/15 09:14:36;;;;;;;;;;;;;;;18.09;82.50;100901.59;5052486;28;20378;-34
2022/09/15 09:17:13;;;;;;;;;;;;;;;18.47;82.87;100901.31;5052855;28;20390;-37
2022/09/15 09:19:52;;;;;;;;;;;;;;;18.88;81.26;100905.13;5053258;28;20436;-39
2022/09/15 09:22:23;;;;;;;;;;;;;;;18.95;77.92;100915.84;5030357;28;19929;-32
2022/09/15 09:24:52;;;;;;;;;;;;;;;18.83;78.17;100930.81;5033319;28;19929;-38
2022/09/15 09:27:22;;;;;;;;;;;;;;;18.71;81.71;100923.16;5051473;28;20277;-36
2022/09/15 09:29:54;;;;;;;;;;;;;;;18.65;84.29;100929.38;5053238;28;19979;-37
2022/09/15 09:32:24;;;;;;;;;;;;;;;18.52;84.56;100918.06;5052501;28;20370;-32
2022/09/15 09:34:57;;;;;;;;;;;;;;;18.44;85.65;100918.13;5051884;28;19933;-32
2022/09/15 09:37:26;;;;;;;;;;;;;;;18.39;85.38;100910.72;5052586;28;19928;-32
2022/09/15 09:39:54;;;;;;;;;;;;;;;18.33;84.14;100914.13;5052982;28;19929;-34
2022/09/15 09:42:25;;;;;;;;;;;;;;;18.25;82.32;100911.03;5051757;28;19935;-35
2022/09/15 09:44:52;;;;;;;;;;;;;;;18.22;79.57;100903.25;5052551;28;19924;-40
2022/09/15 09:47:20;;;;;;;;;;;;;;;18.29;79.20;100905.53;5052334;28;20342;-33
2022/09/15 09:49:48;;;;;;;;;;;;;;;18.40;79.77;100908.72;5051569;28;19979;-33
2022/09/15 09:52:32;;;;;;;;;;;;;;;18.62;81.54;100902.66;5052425;28;20333;-32
2022/09/15 09:55:01;;;;;;;;;;;;;;;19.09;82.27;100900.16;5052723;28;20341;-33
2022/09/15 09:57:30;;;;;;;;;;;;;;;19.55;80.05;100895.97;5051896;28;20293;-33
2022/09/15 09:59:57;;;;;;;;;;;;;;;19.82;75.96;100902.78;5052315;28;19929;-38
2022/09/15 10:02:26;;;;;;;;;;;;;;;19.91;76.39;100897.81;5051439;28;20014;-43
2022/09/15 10:04:54;;;;;;;;;;;;;;;19.89;77.59;100902.19;5051720;28;20002;-38
2022/09/15 10:07:23;;;;;;;;;;;;;;;19.76;77.33;100898.59;5052142;28;19925;-36
2022/09/15 10:09:52;;;;;;;;;;;;;;;19.58;75.63;100903.72;5051245;28;19928;-36
2022/09/15 10:12:23;;;;;;;;;;;;;;;19.52;73.95;100902.34;5051785;28;19971;-41
2022/09/15 10:14:51;;;;;;;;;;;;;;;19.53;72.63;100903.97;5052312;28;20447;-35
2022/09/15 10:17:20;;;;;;;;;;;;;;;19.58;69.65;100900.88;5051307;28;19971;-36
2022/09/15 10:19:49;;;;;;;;;;;;;;;19.83;70.46;100900.78;5041179;28;20328;-33
2022/09/15 10:22:20;;;;;;;;;;;;;;;20.16;69.13;100907.00;5051766;28;19925;-35
2022/09/15 10:24:49;;;;;;;;;;;;;;;20.35;67.99;100902.63;5051055;28;19929;-35
2022/09/15 10:27:18;;;;;;;;;;;;;;;20.34;69.54;100907.50;5051819;28;19925;-38
2022/09/15 10:29:47;;;;;;;;;;;;;;;20.33;70.00;100907.84;5051627;28;19925;-35
2022/09/15 10:32:16;;;;;;;;;;;;;;;20.30;69.20;100910.22;5051037;28;19932;-37
2022/09/15 10:34:49;;;;;;;;;;;;;;;20.30;68.00;100910.22;5051509;28;20028;-35
2022/09/15 10:37:22;;;;;;;;;;;;;;;20.29;69.79;100905.75;5051265;28;19929;-36
2022/09/15 10:39:52;;;;;;;;;;;;;;;20.24;68.53;100919.34;5051500;28;19932;-33
2022/09/15 10:42:25;;;;;;;;;;;;;;;20.16;68.73;100915.50;5051894;28;19934;-33
2022/09/15 10:45:01;;;;;;;;;;;;;;;20.14;70.76;100915.03;5050918;28;19929;-36
2022/09/15 10:47:32;;;;;;;;;;;;;;;20.12;71.39;100911.75;5051605;28;19935;-39
2022/09/15 10:50:06;;;;;;;;;;;;;;;20.00;70.35;100914.63;5050999;28;19979;-38
2022/09/15 10:52:38;;;;;;;;;;;;;;;19.86;70.57;100905.72;5050980;28;19929;-33
2022/09/15 10:55:19;;;;;;;;;;;;;;;19.75;70.40;100898.94;5051288;28;19929;-36
2022/09/15 10:58:21;;;;;;;;;;;;;;;19.68;71.41;100907.22;5051179;28;19929;-35
2022/09/15 11:00:54;;;;;;;;;;;;;;;19.61;69.22;100905.81;5048509;28;19928;-42
2022/09/15 11:03:32;;;;;;;;;;;;;;;19.60;70.28;100909.00;5051483;28;20032;-41
2022/09/15 11:06:05;;;;;;;;;;;;;;;19.59;70.06;100907.38;5047698;28;20408;-35
2022/09/15 11:08:40;;;;;;;;;;;;;;;19.53;70.34;100906.00;5051102;28;19925;-39
2022/09/15 11:11:14;;;;;;;;;;;;;;;19.54;70.72;100911.28;5027014;28;20338;-33
2022/09/15 11:13:49;;;;;;;;;;;;;;;19.56;69.99;100908.94;5031501;28;19979;-34
2022/09/15 11:16:26;;;;;;;;;;;;;;;19.64;67.77;100909.13;5049895;28;19929;-32
2022/09/15 11:19:13;;;;;;;;;;;;;;;19.81;68.07;100909.63;5055415;28;19931;-32
2022/09/15 11:21:43;;;;;;;;;;;;;;;20.18;65.33;100906.66;5052976;28;19931;-39
2022/09/15 11:24:37;;;;;;;;;;;;;;;20.43;63.62;100908.16;5055349;28;19925;-33
2022/09/15 11:27:07;;;;;;;;;;;;;;;20.71;60.81;100913.75;5018979;28;19936;-36
2022/09/15 11:29:52;;;;;;;;;;;;;;;20.89;59.84;100909.34;5054908;28;19933;-33
2022/09/15 11:32:25;;;;;;;;;;;;;;;20.94;61.08;100919.59;5045077;28;19974;-36
2022/09/15 11:34:55;;;;;;;;;;;;;;;20.90;59.79;100916.66;5054402;28;19925;-34
2022/09/15 11:37:24;;;;;;;;;;;;;;;20.92;60.98;100914.28;5055069;28;19947;-33
2022/09/15 11:39:56;;;;;;;;;;;;;;;21.02;59.48;100914.88;5054694;28;19990;-34
2022/09/15 11:42:25;;;;;;;;;;;;;;;21.15;58.85;100914.41;5054277;28;19959;-39
2022/09/15 11:44:55;;;;;;;;;;;;;;;21.36;59.60;100910.47;5054564;28;19971;-33
2022/09/15 11:47:28;;;;;;;;;;;;;;;21.44;55.55;100918.75;5054920;28;20224;-33
2022/09/15 11:49:57;;;;;;;;;;;;;;;21.48;57.84;100925.34;5054043;28;19982;-34
2022/09/15 11:52:32;;;;;;;;;;;;;;;21.51;58.27;100929.44;5033262;28;19932;-39
2022/09/15 11:55:02;;;;;;;;;;;;;;;21.45;56.62;100920.41;5034521;28;19979;-40
2022/09/15 11:57:34;;;;;;;;;;;;;;;21.41;57.77;100918.66;5053893;28;20360;-32
2022/09/15 12:00:05;;;;;;;;;;;;;;;21.50;55.11;100922.94;5054586;28;19929;-39
2022/09/15 12:02:38;;;;;;;;;;;;;;;21.62;54.58;100919.97;5053678;28;19928;-32
2022/09/15 12:05:09;;;;;;;;;;;;;;;21.82;55.65;100932.16;5054947;28;19924;-38
2022/09/15 12:07:41;;;;;;;;;;;;;;;21.91;53.56;100931.94;5054225;28;19929;-33
2022/09/15 12:10:13;;;;;;;;;;;;;;;21.91;52.16;100929.09;5053903;28;19925;-32
2022/09/15 12:12:43;;;;;;;;;;;;;;;21.89;52.80;100934.31;5054154;28;20035;-41
2022/09/15 12:15:14;;;;;;;;;;;;;;;21.84;53.26;100926.09;5054424;28;19935;-42
2022/09/15 12:17:47;;;;;;;;;;;;;;;21.86;57.68;100929.38;5053423;28;19932;-37
2022/09/15 12:20:18;;;;;;;;;;;;;;;21.82;57.36;100935.00;5016994;28;19940;-34
2022/09/15 12:22:49;;;;;;;;;;;;;;;21.88;58.58;100929.84;5049583;28;19932;-33
2022/09/15 12:25:18;;;;;;;;;;;;;;;21.97;57.16;100930.44;5054223;28;20354;-33
2022/09/15 12:28:01;;;;;;;;;;;;;;;22.03;57.14;100931.81;5053072;28;19924;-33
2022/09/15 12:30:39;;;;;;;;;;;;;;;21.99;55.13;100936.56;5033810;28;19925;-33
2022/09/15 12:33:21;;;;;;;;;;;;;;;21.90;55.53;100942.47;5034339;28;19929;-33
2022/09/15 12:35:50;;;;;;;;;;;;;;;21.95;56.88;100938.53;5034482;28;19968;-41
2022/09/15 12:38:18;;;;;;;;;;;;;;;22.15;57.38;100948.72;5048791;28;19928;-35
2022/09/15 12:40:45;;;;;;;;;;;;;;;22.33;55.15;100949.06;5069455;28;20015;-33
2022/09/15 12:43:19;;;;;;;;;;;;;;;22.37;57.58;100951.97;5053833;28;19979;-38
2022/09/15 12:45:54;;;;;;;;;;;;;;;22.27;57.87;100968.44;5053046;28;19929;-38
2022/09/15 12:48:22;;;;;;;;;;;;;;;22.25;59.02;100950.94;5053410;28;19933;-37